NCAR-RAP Real-Time Weather Data

Output produced by METARs form (14 October 2019  23:29 UTC)
found at http://weather.rap.ucar.edu/surface/
 
KORD 142251Z 21005KT 10SM SCT250 11/01 A3004 RMK AO2 SLP177 T01110006 $
KORD 142151Z 24006KT 10SM SCT250 12/01 A3005 RMK AO2 SLP179 T01170006 $
KORD 142051Z 26006KT 10SM SCT250 12/01 A3005 RMK AO2 SLP179 T01170006 56009 $
KORD 141951Z 25008KT 10SM SCT250 12/01 A3006 RMK AO2 SLP180 T01170006 $
KORD 141851Z 24008KT 10SM FEW250 11/00 A3006 RMK AO2 SLP182 T01110000 $
KORD 141751Z 28011KT 10SM FEW040 FEW250 10/M01 A3008 RMK AO2 SLP188 T01001006 10100 20028 58005 $
KORD 141651Z 28013G19KT 10SM FEW034 FEW100 09/M01 A3009 RMK AO2 SLP191 T00941006 $
KORD 141551Z 29007KT 10SM FEW032 FEW100 08/M01 A3009 RMK AO2 SLP193 T00781006 $
KORD 141451Z 23007KT 10SM FEW025 FEW090 06/01 A3009 RMK AO2 SLP194 T00610006 $
KORD 141351Z 28008KT 10SM FEW020 04/00 A3007 RMK AO2 SLP187 T00440000 $
KORD 141251Z 26006KT 10SM FEW020 03/00 A3006 RMK AO2 SLP183 T00330000 $
KORD 141151Z 25005KT 10SM FEW020 03/M01 A3003 RMK AO2 SLP175 T00281006 10061 20028 53016 $
KORD 141051Z 25005KT 10SM CLR 03/M01 A3001 RMK AO2 SLP166 T00281006 $
KORD 140951Z 26005KT 10SM CLR 03/M01 A3000 RMK AO2 SLP164 T00331006 $
KORD 140851Z 26006KT 10SM CLR 03/00 A2999 RMK AO2 SLP158 T00330000 53010 $
KORD 140751Z 25005KT 10SM FEW075 04/00 A2998 RMK AO2 SLP154 T00440000 $
KORD 140651Z 25005KT 10SM SCT075 05/M01 A2997 RMK AO2 SLP151 T00501006 $
KORD 140551Z 27006KT 10SM BKN075 06/M01 A2996 RMK AO2 SLP147 T00611006 10083 20061 401110028 53005 $
KORD 140451Z 29007KT 10SM SCT055 OVC085 06/00 A2994 RMK AO2 SLP143 T00610000 $
KORD 140351Z 30005KT 10SM FEW055 OVC090 07/M01 A2994 RMK AO2 SLP142 T00671006 $
KORD 140251Z 28006KT 10SM SCT055 OVC090 07/00 A2994 RMK AO2 SLP142 T00720000 51015 $
KORD 140151Z 31008KT 10SM BKN055 OVC070 07/01 A2993 RMK AO2 SLP137 T00720006 $
KORD 140051Z 28009KT 10SM OVC075 08/M01 A2992 RMK AO2 SLP134 T00781006 $
KORD 132351Z 29012KT 10SM SCT055 BKN080 BKN150 08/00 A2990 RMK AO2 SLP128 T00830000 10111 20083 53026 $
KORD 132251Z 27013G19KT 10SM BKN055 BKN140 09/00 A2986 RMK AO2 SLP116 T00890000 $
KORD 132151Z 28009G16KT 10SM BKN060 BKN095 BKN120 10/01 A2983 RMK AO2 SLP105 T01000011 $
KORD 132051Z 28013KT 10SM BKN060 BKN110 10/01 A2982 RMK AO2 SLP101 T01000006 53001 $
KORD 131951Z 26012G24KT 10SM OVC055 11/00 A2981 RMK AO2 SLP097 T01060000 $
KORD 131851Z 24015G25KT 10SM BKN050 BKN230 11/00 A2980 RMK AO2 PK WND 24033/1814 SLP095 T01110000 $
KORD 131751Z 24012G25KT 10SM BKN050 BKN230 11/00 A2982 RMK AO2 PK WND 25031/1738 SLP099 T01060000 10106 20044 58011 $
KORD 131651Z 26017G28KT 10SM BKN042 BKN230 09/M01 A2984 RMK AO2 PK WND 26031/1606 SLP108 T00891006 $
KORD 131551Z 24014G26KT 10SM SCT034 SCT095 BKN230 08/00 A2985 RMK AO2 PK WND 25028/1529 SLP109 T00780000 $
KORD 131451Z 25018G27KT 10SM FEW020 FEW095 BKN230 06/M01 A2985 RMK AO2 PK WND 26030/1435 SLP110 T00611006 53009 $
KORD 131351Z 25012G20KT 10SM FEW020 FEW095 BKN230 05/M01 A2983 RMK AO2 SLP105 T00501006 $
KORD 131251Z 22010KT 10SM SCT095 BKN210 05/M01 A2982 RMK AO2 SLP102 T00501006 $
KORD 131151Z 22008KT 10SM BKN095 04/00 A2982 RMK AO2 SLP101 T00440000 10044 20028 55000 $
KORD 131051Z 21006KT 10SM SCT100 SCT180 03/00 A2981 RMK AO2 SLP098 T00330000 $
KORD 130951Z 20005KT 10SM FEW080 SCT170 03/01 A2981 RMK AO2 SLP099 T00330006 $
KORD 130851Z 21003KT 10SM SCT080 03/01 A2982 RMK AO2 SLP102 T00280006 56003 $
KORD 130751Z 00000KT 10SM SCT080 03/01 A2982 RMK AO2 SLP102 T00330006 $
KORD 130651Z 00000KT 10SM SCT080 04/01 A2982 RMK AO2 SLP102 T00440006 $
KORD 130551Z 34003KT 10SM BKN085 04/01 A2983 RMK AO2 SLP104 T00440006 10111 20039 401220017 50004 $
KORD 130451Z 34004KT 10SM SCT100 04/01 A2983 RMK AO2 SLP106 T00440006 $
KORD 130351Z 22009G17KT 10SM BKN100 10/00 A2982 RMK AO2 SLP101 T01000000 $
KORD 130251Z 24012G25KT 10SM SCT080 BKN095 11/M01 A2982 RMK AO2 PK WND 19027/0215 SLP100 T01061006 53001 $
KORD 130151Z 20014G24KT 10SM BKN090 11/M01 A2980 RMK AO2 PK WND 19033/0114 SLP095 T01111011 $
KORD 130051Z 20014G21KT 10SM BKN090 11/M01 A2981 RMK AO2 SLP097 T01111011 $
KORD 122351Z 19011G18KT 10SM FEW090 FEW250 11/M02 A2981 RMK AO2 SLP099 T01111017 10122 20089 55008 $